sensor_id;sensor_type;location;lat;lon;timestamp;P1;durP1;ratioP1;P2;durP2;ratioP2
46815;SDS011;32787;53.316;8.670;2023-11-21T00:01:16;22.27;;;7.65;;
46815;SDS011;32787;53.316;8.670;2023-11-21T00:03:42;20.60;;;8.30;;
46815;SDS011;32787;53.316;8.670;2023-11-21T00:06:07;22.23;;;7.10;;
46815;SDS011;32787;53.316;8.670;2023-11-21T00:08:36;23.92;;;7.97;;
46815;SDS011;32787;53.316;8.670;2023-11-21T00:11:02;23.52;;;7.40;;
46815;SDS011;32787;53.316;8.670;2023-11-21T00:13:30;22.08;;;6.97;;
46815;SDS011;32787;53.316;8.670;2023-11-21T00:15:56;26.70;;;7.20;;
46815;SDS011;32787;53.316;8.670;2023-11-21T00:18:22;24.73;;;7.60;;
46815;SDS011;32787;53.316;8.670;2023-11-21T00:20:47;18.58;;;6.80;;
46815;SDS011;32787;53.316;8.670;2023-11-21T00:23:13;29.30;;;7.40;;
46815;SDS011;32787;53.316;8.670;2023-11-21T00:25:38;20.40;;;7.03;;
46815;SDS011;32787;53.316;8.670;2023-11-21T00:28:05;22.95;;;7.63;;
46815;SDS011;32787;53.316;8.670;2023-11-21T00:30:31;26.42;;;7.55;;
46815;SDS011;32787;53.316;8.670;2023-11-21T00:32:56;16.30;;;6.68;;
46815;SDS011;32787;53.316;8.670;2023-11-21T00:35:22;19.35;;;7.40;;
46815;SDS011;32787;53.316;8.670;2023-11-21T00:37:48;20.10;;;7.47;;
46815;SDS011;32787;53.316;8.670;2023-11-21T00:40:14;17.77;;;7.28;;
46815;SDS011;32787;53.316;8.670;2023-11-21T00:42:40;17.48;;;6.80;;
46815;SDS011;32787;53.316;8.670;2023-11-21T00:45:07;18.83;;;7.65;;
46815;SDS011;32787;53.316;8.670;2023-11-21T00:47:33;24.00;;;7.32;;
46815;SDS011;32787;53.316;8.670;2023-11-21T00:49:58;22.70;;;7.90;;
46815;SDS011;32787;53.316;8.670;2023-11-21T00:52:24;21.05;;;7.95;;
46815;SDS011;32787;53.316;8.670;2023-11-21T00:54:50;21.48;;;7.93;;
46815;SDS011;32787;53.316;8.670;2023-11-21T00:57:15;22.42;;;8.45;;
46815;SDS011;32787;53.316;8.670;2023-11-21T00:59:41;20.48;;;8.15;;
46815;SDS011;32787;53.316;8.670;2023-11-21T01:02:07;28.40;;;8.38;;
46815;SDS011;32787;53.316;8.670;2023-11-21T01:04:35;16.67;;;7.53;;
46815;SDS011;32787;53.316;8.670;2023-11-21T01:07:00;20.55;;;8.00;;
46815;SDS011;32787;53.316;8.670;2023-11-21T01:09:26;24.38;;;8.15;;
46815;SDS011;32787;53.316;8.670;2023-11-21T01:11:53;16.27;;;7.88;;
46815;SDS011;32787;53.316;8.670;2023-11-21T01:14:18;22.02;;;7.80;;
46815;SDS011;32787;53.316;8.670;2023-11-21T01:16:44;15.77;;;6.90;;
46815;SDS011;32787;53.316;8.670;2023-11-21T01:19:10;18.70;;;6.72;;
46815;SDS011;32787;53.316;8.670;2023-11-21T01:21:35;19.65;;;6.90;;
46815;SDS011;32787;53.316;8.670;2023-11-21T01:24:01;17.80;;;7.45;;
46815;SDS011;32787;53.316;8.670;2023-11-21T01:26:27;19.50;;;7.07;;
46815;SDS011;32787;53.316;8.670;2023-11-21T01:28:53;23.88;;;8.30;;
46815;SDS011;32787;53.316;8.670;2023-11-21T01:31:19;20.42;;;10.85;;
46815;SDS011;32787;53.316;8.670;2023-11-21T01:33:45;23.77;;;10.68;;
46815;SDS011;32787;53.316;8.670;2023-11-21T01:36:11;24.70;;;11.15;;
46815;SDS011;32787;53.316;8.670;2023-11-21T01:38:37;25.65;;;12.32;;
46815;SDS011;32787;53.316;8.670;2023-11-21T01:41:02;24.38;;;11.77;;
46815;SDS011;32787;53.316;8.670;2023-11-21T01:43:29;22.08;;;10.98;;
46815;SDS011;32787;53.316;8.670;2023-11-21T01:45:57;20.40;;;11.13;;
46815;SDS011;32787;53.316;8.670;2023-11-21T01:48:23;24.63;;;11.55;;
46815;SDS011;32787;53.316;8.670;2023-11-21T01:50:50;25.75;;;12.65;;
46815;SDS011;32787;53.316;8.670;2023-11-21T01:53:16;29.67;;;12.82;;
46815;SDS011;32787;53.316;8.670;2023-11-21T01:55:41;31.17;;;13.07;;
46815;SDS011;32787;53.316;8.670;2023-11-21T01:58:09;28.55;;;12.85;;
46815;SDS011;32787;53.316;8.670;2023-11-21T02:00:37;30.98;;;12.63;;
46815;SDS011;32787;53.316;8.670;2023-11-21T02:03:03;28.65;;;12.48;;
46815;SDS011;32787;53.316;8.670;2023-11-21T02:05:29;26.65;;;12.00;;
46815;SDS011;32787;53.316;8.670;2023-11-21T02:07:55;34.55;;;12.95;;
46815;SDS011;32787;53.316;8.670;2023-11-21T02:10:21;33.45;;;13.30;;
46815;SDS011;32787;53.316;8.670;2023-11-21T02:12:48;29.08;;;12.63;;
46815;SDS011;32787;53.316;8.670;2023-11-21T02:15:17;30.80;;;13.32;;
46815;SDS011;32787;53.316;8.670;2023-11-21T02:17:46;34.63;;;14.57;;
46815;SDS011;32787;53.316;8.670;2023-11-21T02:22:43;31.20;;;14.93;;
46815;SDS011;32787;53.316;8.670;2023-11-21T02:25:14;30.45;;;14.05;;
46815;SDS011;32787;53.316;8.670;2023-11-21T02:27:39;35.50;;;13.95;;
46815;SDS011;32787;53.316;8.670;2023-11-21T02:30:05;34.15;;;14.27;;
46815;SDS011;32787;53.316;8.670;2023-11-21T02:32:33;37.50;;;14.45;;
46815;SDS011;32787;53.316;8.670;2023-11-21T02:34:59;34.72;;;13.75;;
46815;SDS011;32787;53.316;8.670;2023-11-21T02:37:27;39.25;;;15.68;;
46815;SDS011;32787;53.316;8.670;2023-11-21T02:39:53;38.50;;;16.65;;
46815;SDS011;32787;53.316;8.670;2023-11-21T02:42:18;34.28;;;15.75;;
46815;SDS011;32787;53.316;8.670;2023-11-21T02:44:44;36.50;;;15.55;;
46815;SDS011;32787;53.316;8.670;2023-11-21T02:47:10;37.28;;;16.33;;
46815;SDS011;32787;53.316;8.670;2023-11-21T02:49:35;33.70;;;15.57;;
46815;SDS011;32787;53.316;8.670;2023-11-21T02:52:01;37.75;;;17.35;;
46815;SDS011;32787;53.316;8.670;2023-11-21T02:54:27;39.70;;;16.98;;
46815;SDS011;32787;53.316;8.670;2023-11-21T02:56:52;39.33;;;17.40;;
46815;SDS011;32787;53.316;8.670;2023-11-21T02:59:18;39.60;;;17.52;;
46815;SDS011;32787;53.316;8.670;2023-11-21T03:01:44;45.95;;;18.85;;
46815;SDS011;32787;53.316;8.670;2023-11-21T03:04:11;42.80;;;19.27;;
46815;SDS011;32787;53.316;8.670;2023-11-21T03:06:42;37.90;;;17.70;;
46815;SDS011;32787;53.316;8.670;2023-11-21T03:09:09;37.25;;;17.42;;
46815;SDS011;32787;53.316;8.670;2023-11-21T03:11:34;39.70;;;17.83;;
46815;SDS011;32787;53.316;8.670;2023-11-21T03:14:00;37.97;;;17.63;;
46815;SDS011;32787;53.316;8.670;2023-11-21T03:16:26;39.63;;;18.35;;
46815;SDS011;32787;53.316;8.670;2023-11-21T03:18:51;34.92;;;17.10;;
46815;SDS011;32787;53.316;8.670;2023-11-21T03:21:17;44.00;;;18.35;;
46815;SDS011;32787;53.316;8.670;2023-11-21T03:23:43;37.22;;;17.55;;
46815;SDS011;32787;53.316;8.670;2023-11-21T03:26:11;36.20;;;17.08;;
46815;SDS011;32787;53.316;8.670;2023-11-21T03:28:37;35.20;;;17.45;;
46815;SDS011;32787;53.316;8.670;2023-11-21T03:31:03;35.72;;;19.10;;
46815;SDS011;32787;53.316;8.670;2023-11-21T03:33:29;42.55;;;18.98;;
46815;SDS011;32787;53.316;8.670;2023-11-21T03:35:55;39.10;;;18.60;;
46815;SDS011;32787;53.316;8.670;2023-11-21T03:38:20;42.10;;;19.00;;
46815;SDS011;32787;53.316;8.670;2023-11-21T03:40:46;35.45;;;20.40;;
46815;SDS011;32787;53.316;8.670;2023-11-21T03:43:12;36.55;;;19.10;;
46815;SDS011;32787;53.316;8.670;2023-11-21T03:45:38;34.47;;;17.85;;
46815;SDS011;32787;53.316;8.670;2023-11-21T03:48:05;28.77;;;14.82;;
46815;SDS011;32787;53.316;8.670;2023-11-21T03:50:31;26.98;;;13.63;;
46815;SDS011;32787;53.316;8.670;2023-11-21T03:52:57;27.02;;;14.18;;
46815;SDS011;32787;53.316;8.670;2023-11-21T03:55:22;25.80;;;13.77;;
46815;SDS011;32787;53.316;8.670;2023-11-21T03:57:51;26.15;;;14.60;;
46815;SDS011;32787;53.316;8.670;2023-11-21T04:00:17;25.15;;;13.88;;
46815;SDS011;32787;53.316;8.670;2023-11-21T04:02:45;29.98;;;13.63;;
46815;SDS011;32787;53.316;8.670;2023-11-21T04:05:10;26.55;;;14.02;;
46815;SDS011;32787;53.316;8.670;2023-11-21T04:07:37;27.95;;;15.38;;
46815;SDS011;32787;53.316;8.670;2023-11-21T04:10:03;27.38;;;14.98;;
46815;SDS011;32787;53.316;8.670;2023-11-21T04:12:33;27.30;;;15.13;;
46815;SDS011;32787;53.316;8.670;2023-11-21T04:14:58;26.90;;;15.05;;
46815;SDS011;32787;53.316;8.670;2023-11-21T04:17:24;29.80;;;14.45;;
46815;SDS011;32787;53.316;8.670;2023-11-21T04:19:49;31.15;;;16.27;;
46815;SDS011;32787;53.316;8.670;2023-11-21T04:22:15;30.83;;;15.40;;
46815;SDS011;32787;53.316;8.670;2023-11-21T04:24:41;29.45;;;14.65;;
46815;SDS011;32787;53.316;8.670;2023-11-21T04:27:06;30.35;;;16.08;;
46815;SDS011;32787;53.316;8.670;2023-11-21T04:29:32;32.25;;;16.23;;
46815;SDS011;32787;53.316;8.670;2023-11-21T04:31:58;33.83;;;15.82;;
46815;SDS011;32787;53.316;8.670;2023-11-21T04:34:24;37.90;;;17.73;;
46815;SDS011;32787;53.316;8.670;2023-11-21T04:36:50;31.80;;;16.20;;
46815;SDS011;32787;53.316;8.670;2023-11-21T04:39:15;34.53;;;16.88;;
46815;SDS011;32787;53.316;8.670;2023-11-21T04:41:41;40.50;;;17.00;;
46815;SDS011;32787;53.316;8.670;2023-11-21T04:44:07;34.28;;;15.90;;
46815;SDS011;32787;53.316;8.670;2023-11-21T04:46:33;37.70;;;16.45;;
46815;SDS011;32787;53.316;8.670;2023-11-21T04:48:59;31.75;;;17.35;;
46815;SDS011;32787;53.316;8.670;2023-11-21T04:51:24;41.47;;;17.55;;
46815;SDS011;32787;53.316;8.670;2023-11-21T04:53:50;34.40;;;18.20;;
46815;SDS011;32787;53.316;8.670;2023-11-21T04:56:16;33.05;;;17.27;;
46815;SDS011;32787;53.316;8.670;2023-11-21T04:58:41;32.13;;;16.40;;
46815;SDS011;32787;53.316;8.670;2023-11-21T05:01:07;33.75;;;17.10;;
46815;SDS011;32787;53.316;8.670;2023-11-21T05:03:33;26.65;;;14.93;;
46815;SDS011;32787;53.316;8.670;2023-11-21T05:05:59;26.58;;;14.38;;
46815;SDS011;32787;53.316;8.670;2023-11-21T05:08:25;26.70;;;13.77;;
46815;SDS011;32787;53.316;8.670;2023-11-21T05:10:51;25.05;;;12.85;;
46815;SDS011;32787;53.316;8.670;2023-11-21T05:13:18;26.25;;;13.38;;
46815;SDS011;32787;53.316;8.670;2023-11-21T05:15:45;23.48;;;13.45;;
46815;SDS011;32787;53.316;8.670;2023-11-21T05:18:10;23.63;;;12.57;;
46815;SDS011;32787;53.316;8.670;2023-11-21T05:20:38;22.30;;;13.00;;
46815;SDS011;32787;53.316;8.670;2023-11-21T05:23:04;24.55;;;13.65;;
46815;SDS011;32787;53.316;8.670;2023-11-21T05:25:30;23.60;;;12.82;;
46815;SDS011;32787;53.316;8.670;2023-11-21T05:27:55;24.70;;;13.23;;
46815;SDS011;32787;53.316;8.670;2023-11-21T05:30:21;24.00;;;13.00;;
46815;SDS011;32787;53.316;8.670;2023-11-21T05:32:47;24.23;;;11.77;;
46815;SDS011;32787;53.316;8.670;2023-11-21T05:35:14;18.58;;;10.10;;
46815;SDS011;32787;53.316;8.670;2023-11-21T05:37:43;17.20;;;9.75;;
46815;SDS011;32787;53.316;8.670;2023-11-21T05:40:09;17.27;;;10.00;;
46815;SDS011;32787;53.316;8.670;2023-11-21T05:42:35;19.30;;;10.00;;
46815;SDS011;32787;53.316;8.670;2023-11-21T05:45:03;15.32;;;8.90;;
46815;SDS011;32787;53.316;8.670;2023-11-21T05:47:36;18.92;;;9.40;;
46815;SDS011;32787;53.316;8.670;2023-11-21T05:50:03;15.70;;;8.98;;
46815;SDS011;32787;53.316;8.670;2023-11-21T05:52:30;19.75;;;9.40;;
46815;SDS011;32787;53.316;8.670;2023-11-21T05:54:57;15.50;;;8.85;;
46815;SDS011;32787;53.316;8.670;2023-11-21T05:57:23;16.73;;;9.05;;
46815;SDS011;32787;53.316;8.670;2023-11-21T05:59:48;17.40;;;8.98;;
46815;SDS011;32787;53.316;8.670;2023-11-21T06:02:14;17.40;;;9.50;;
46815;SDS011;32787;53.316;8.670;2023-11-21T06:04:39;15.73;;;8.57;;
46815;SDS011;32787;53.316;8.670;2023-11-21T06:07:05;17.05;;;9.35;;
46815;SDS011;32787;53.316;8.670;2023-11-21T06:09:31;16.00;;;8.48;;
46815;SDS011;32787;53.316;8.670;2023-11-21T06:11:56;17.25;;;8.98;;
46815;SDS011;32787;53.316;8.670;2023-11-21T06:14:23;16.35;;;8.77;;
46815;SDS011;32787;53.316;8.670;2023-11-21T06:16:49;14.10;;;7.82;;
46815;SDS011;32787;53.316;8.670;2023-11-21T06:19:16;16.42;;;9.02;;
46815;SDS011;32787;53.316;8.670;2023-11-21T06:21:45;16.15;;;8.77;;
46815;SDS011;32787;53.316;8.670;2023-11-21T06:24:11;17.73;;;9.02;;
46815;SDS011;32787;53.316;8.670;2023-11-21T06:26:36;16.90;;;9.45;;
46815;SDS011;32787;53.316;8.670;2023-11-21T06:29:02;16.27;;;9.07;;
46815;SDS011;32787;53.316;8.670;2023-11-21T06:31:28;17.20;;;8.80;;
46815;SDS011;32787;53.316;8.670;2023-11-21T06:33:54;18.17;;;8.98;;
46815;SDS011;32787;53.316;8.670;2023-11-21T06:36:20;17.85;;;9.43;;
46815;SDS011;32787;53.316;8.670;2023-11-21T06:38:46;18.27;;;9.90;;
46815;SDS011;32787;53.316;8.670;2023-11-21T06:41:11;17.92;;;9.00;;
46815;SDS011;32787;53.316;8.670;2023-11-21T06:43:40;17.35;;;8.63;;
46815;SDS011;32787;53.316;8.670;2023-11-21T06:46:06;18.48;;;9.23;;
46815;SDS011;32787;53.316;8.670;2023-11-21T06:48:31;16.40;;;9.15;;
46815;SDS011;32787;53.316;8.670;2023-11-21T06:50:57;18.75;;;9.98;;
46815;SDS011;32787;53.316;8.670;2023-11-21T06:53:23;19.15;;;10.68;;
46815;SDS011;32787;53.316;8.670;2023-11-21T06:55:49;19.17;;;9.90;;
46815;SDS011;32787;53.316;8.670;2023-11-21T06:58:15;15.75;;;8.82;;
46815;SDS011;32787;53.316;8.670;2023-11-21T07:00:40;18.50;;;9.07;;
46815;SDS011;32787;53.316;8.670;2023-11-21T07:03:11;19.35;;;10.23;;
46815;SDS011;32787;53.316;8.670;2023-11-21T07:05:37;18.25;;;9.43;;
46815;SDS011;32787;53.316;8.670;2023-11-21T07:08:02;19.17;;;9.48;;
46815;SDS011;32787;53.316;8.670;2023-11-21T07:10:29;18.80;;;10.43;;
46815;SDS011;32787;53.316;8.670;2023-11-21T07:12:55;19.88;;;10.20;;
46815;SDS011;32787;53.316;8.670;2023-11-21T07:15:22;18.52;;;10.48;;
46815;SDS011;32787;53.316;8.670;2023-11-21T07:17:47;18.80;;;10.48;;
46815;SDS011;32787;53.316;8.670;2023-11-21T07:20:13;18.25;;;9.98;;
46815;SDS011;32787;53.316;8.670;2023-11-21T07:22:42;16.45;;;8.77;;
46815;SDS011;32787;53.316;8.670;2023-11-21T07:25:08;19.98;;;10.27;;
46815;SDS011;32787;53.316;8.670;2023-11-21T07:27:34;20.35;;;11.70;;
46815;SDS011;32787;53.316;8.670;2023-11-21T07:30:01;19.50;;;9.93;;
46815;SDS011;32787;53.316;8.670;2023-11-21T07:32:30;17.50;;;9.75;;
46815;SDS011;32787;53.316;8.670;2023-11-21T07:34:56;17.52;;;9.50;;
46815;SDS011;32787;53.316;8.670;2023-11-21T07:37:24;21.27;;;10.57;;
46815;SDS011;32787;53.316;8.670;2023-11-21T07:39:53;21.35;;;11.00;;
46815;SDS011;32787;53.316;8.670;2023-11-21T07:42:21;22.08;;;11.27;;
46815;SDS011;32787;53.316;8.670;2023-11-21T07:44:49;23.23;;;10.75;;
46815;SDS011;32787;53.316;8.670;2023-11-21T07:47:15;19.98;;;10.63;;
46815;SDS011;32787;53.316;8.670;2023-11-21T07:49:40;19.80;;;10.98;;
46815;SDS011;32787;53.316;8.670;2023-11-21T07:52:08;19.08;;;10.98;;
46815;SDS011;32787;53.316;8.670;2023-11-21T07:54:34;19.95;;;9.65;;
46815;SDS011;32787;53.316;8.670;2023-11-21T07:57:01;21.83;;;10.48;;
46815;SDS011;32787;53.316;8.670;2023-11-21T07:59:29;18.63;;;10.52;;
46815;SDS011;32787;53.316;8.670;2023-11-21T08:01:54;20.08;;;10.90;;
46815;SDS011;32787;53.316;8.670;2023-11-21T08:04:20;19.85;;;11.07;;
46815;SDS011;32787;53.316;8.670;2023-11-21T08:06:46;20.30;;;11.07;;
46815;SDS011;32787;53.316;8.670;2023-11-21T08:09:11;20.85;;;10.98;;
46815;SDS011;32787;53.316;8.670;2023-11-21T08:11:37;19.30;;;10.40;;
46815;SDS011;32787;53.316;8.670;2023-11-21T08:14:04;18.75;;;10.23;;
46815;SDS011;32787;53.316;8.670;2023-11-21T08:16:30;18.10;;;9.85;;
46815;SDS011;32787;53.316;8.670;2023-11-21T08:18:56;17.83;;;9.90;;
46815;SDS011;32787;53.316;8.670;2023-11-21T08:21:21;18.25;;;10.13;;
46815;SDS011;32787;53.316;8.670;2023-11-21T08:23:50;19.52;;;10.77;;
46815;SDS011;32787;53.316;8.670;2023-11-21T08:26:19;18.25;;;10.85;;
46815;SDS011;32787;53.316;8.670;2023-11-21T08:28:45;20.30;;;11.18;;
46815;SDS011;32787;53.316;8.670;2023-11-21T08:31:12;21.40;;;10.65;;
46815;SDS011;32787;53.316;8.670;2023-11-21T08:33:38;21.30;;;10.07;;
46815;SDS011;32787;53.316;8.670;2023-11-21T08:36:06;17.20;;;10.23;;
46815;SDS011;32787;53.316;8.670;2023-11-21T08:38:33;18.50;;;10.40;;
46815;SDS011;32787;53.316;8.670;2023-11-21T08:41:02;17.50;;;9.93;;
46815;SDS011;32787;53.316;8.670;2023-11-21T08:43:32;18.50;;;9.63;;
46815;SDS011;32787;53.316;8.670;2023-11-21T08:46:00;17.27;;;10.43;;
46815;SDS011;32787;53.316;8.670;2023-11-21T08:48:26;18.52;;;10.10;;
46815;SDS011;32787;53.316;8.670;2023-11-21T08:50:53;15.82;;;9.68;;
46815;SDS011;32787;53.316;8.670;2023-11-21T08:53:19;18.27;;;9.55;;
46815;SDS011;32787;53.316;8.670;2023-11-21T08:55:45;19.92;;;10.15;;
46815;SDS011;32787;53.316;8.670;2023-11-21T08:58:10;18.13;;;10.40;;
46815;SDS011;32787;53.316;8.670;2023-11-21T09:00:37;15.48;;;9.48;;
46815;SDS011;32787;53.316;8.670;2023-11-21T09:03:05;18.10;;;9.88;;
46815;SDS011;32787;53.316;8.670;2023-11-21T09:05:33;19.02;;;10.32;;
46815;SDS011;32787;53.316;8.670;2023-11-21T09:08:02;18.80;;;10.13;;
46815;SDS011;32787;53.316;8.670;2023-11-21T09:10:28;18.48;;;10.65;;
46815;SDS011;32787;53.316;8.670;2023-11-21T09:12:53;16.85;;;9.85;;
46815;SDS011;32787;53.316;8.670;2023-11-21T09:15:19;18.33;;;10.27;;
46815;SDS011;32787;53.316;8.670;2023-11-21T09:17:45;15.55;;;9.40;;
46815;SDS011;32787;53.316;8.670;2023-11-21T09:20:11;15.50;;;9.15;;
46815;SDS011;32787;53.316;8.670;2023-11-21T09:22:37;17.60;;;10.18;;
46815;SDS011;32787;53.316;8.670;2023-11-21T09:25:03;17.73;;;10.00;;
46815;SDS011;32787;53.316;8.670;2023-11-21T09:27:30;17.13;;;9.27;;
46815;SDS011;32787;53.316;8.670;2023-11-21T09:29:56;17.95;;;10.10;;
46815;SDS011;32787;53.316;8.670;2023-11-21T09:32:23;21.80;;;12.10;;
46815;SDS011;32787;53.316;8.670;2023-11-21T09:34:49;22.38;;;11.05;;
46815;SDS011;32787;53.316;8.670;2023-11-21T09:37:15;21.52;;;10.48;;
46815;SDS011;32787;53.316;8.670;2023-11-21T09:39:41;19.10;;;10.63;;
46815;SDS011;32787;53.316;8.670;2023-11-21T09:42:09;20.30;;;10.45;;
46815;SDS011;32787;53.316;8.670;2023-11-21T09:44:36;18.67;;;10.25;;
46815;SDS011;32787;53.316;8.670;2023-11-21T09:47:29;19.13;;;9.90;;
46815;SDS011;32787;53.316;8.670;2023-11-21T09:49:54;17.50;;;10.02;;
46815;SDS011;32787;53.316;8.670;2023-11-21T09:52:26;18.63;;;10.23;;
46815;SDS011;32787;53.316;8.670;2023-11-21T09:54:53;26.17;;;11.52;;
46815;SDS011;32787;53.316;8.670;2023-11-21T09:57:20;18.77;;;10.35;;
46815;SDS011;32787;53.316;8.670;2023-11-21T09:59:47;16.88;;;10.07;;
46815;SDS011;32787;53.316;8.670;2023-11-21T10:02:24;18.30;;;10.48;;
46815;SDS011;32787;53.316;8.670;2023-11-21T10:04:53;18.10;;;10.02;;
46815;SDS011;32787;53.316;8.670;2023-11-21T10:07:20;19.25;;;10.93;;
46815;SDS011;32787;53.316;8.670;2023-11-21T10:09:46;20.08;;;12.10;;
46815;SDS011;32787;53.316;8.670;2023-11-21T10:12:14;20.05;;;11.30;;
46815;SDS011;32787;53.316;8.670;2023-11-21T10:14:41;17.45;;;10.32;;
46815;SDS011;32787;53.316;8.670;2023-11-21T10:17:07;18.17;;;10.02;;
46815;SDS011;32787;53.316;8.670;2023-11-21T10:19:35;26.70;;;11.07;;
46815;SDS011;32787;53.316;8.670;2023-11-21T10:22:01;20.02;;;10.05;;
46815;SDS011;32787;53.316;8.670;2023-11-21T10:24:28;17.02;;;9.35;;
46815;SDS011;32787;53.316;8.670;2023-11-21T10:26:54;19.77;;;9.95;;
46815;SDS011;32787;53.316;8.670;2023-11-21T10:29:20;18.23;;;9.18;;
46815;SDS011;32787;53.316;8.670;2023-11-21T10:31:48;19.58;;;10.30;;
46815;SDS011;32787;53.316;8.670;2023-11-21T10:34:16;16.42;;;9.98;;
46815;SDS011;32787;53.316;8.670;2023-11-21T10:36:43;18.63;;;9.50;;
46815;SDS011;32787;53.316;8.670;2023-11-21T10:39:13;16.52;;;9.45;;
46815;SDS011;32787;53.316;8.670;2023-11-21T10:41:48;16.17;;;9.30;;
46815;SDS011;32787;53.316;8.670;2023-11-21T10:44:14;15.13;;;9.23;;
46815;SDS011;32787;53.316;8.670;2023-11-21T10:46:52;17.63;;;9.48;;
46815;SDS011;32787;53.316;8.670;2023-11-21T10:49:25;15.85;;;8.32;;
46815;SDS011;32787;53.316;8.670;2023-11-21T10:51:52;14.05;;;8.85;;
46815;SDS011;32787;53.316;8.670;2023-11-21T10:54:22;17.08;;;8.57;;
46815;SDS011;32787;53.316;8.670;2023-11-21T10:56:49;15.77;;;7.85;;
46815;SDS011;32787;53.316;8.670;2023-11-21T10:59:29;13.07;;;7.57;;
46815;SDS011;32787;53.316;8.670;2023-11-21T11:01:57;13.60;;;7.93;;
46815;SDS011;32787;53.316;8.670;2023-11-21T11:04:24;15.68;;;8.13;;
46815;SDS011;32787;53.316;8.670;2023-11-21T11:06:55;20.88;;;9.07;;
46815;SDS011;32787;53.316;8.670;2023-11-21T11:09:22;13.10;;;7.88;;
46815;SDS011;32787;53.316;8.670;2023-11-21T11:11:48;14.82;;;7.68;;
46815;SDS011;32787;53.316;8.670;2023-11-21T11:14:14;12.05;;;6.95;;
46815;SDS011;32787;53.316;8.670;2023-11-21T11:16:41;13.63;;;7.85;;
46815;SDS011;32787;53.316;8.670;2023-11-21T11:19:08;12.25;;;6.88;;
46815;SDS011;32787;53.316;8.670;2023-11-21T11:24:57;13.57;;;6.93;;
46815;SDS011;32787;53.316;8.670;2023-11-21T11:33:10;11.90;;;6.90;;
46815;SDS011;32787;53.316;8.670;2023-11-21T11:35:55;12.15;;;7.13;;
46815;SDS011;32787;53.316;8.670;2023-11-21T11:38:38;15.10;;;7.07;;
46815;SDS011;32787;53.316;8.670;2023-11-21T11:41:04;12.82;;;6.95;;
46815;SDS011;32787;53.316;8.670;2023-11-21T11:43:32;11.57;;;6.50;;
46815;SDS011;32787;53.316;8.670;2023-11-21T11:45:59;13.95;;;7.53;;
46815;SDS011;32787;53.316;8.670;2023-11-21T11:48:28;14.10;;;6.72;;
46815;SDS011;32787;53.316;8.670;2023-11-21T11:51:00;13.73;;;6.47;;
46815;SDS011;32787;53.316;8.670;2023-11-21T11:53:28;15.18;;;7.18;;
46815;SDS011;32787;53.316;8.670;2023-11-21T11:56:35;11.48;;;7.07;;
46815;SDS011;32787;53.316;8.670;2023-11-21T11:58:57;12.45;;;7.05;;
46815;SDS011;32787;53.316;8.670;2023-11-21T12:01:26;11.82;;;6.57;;
46815;SDS011;32787;53.316;8.670;2023-11-21T12:06:39;14.98;;;7.18;;
46815;SDS011;32787;53.316;8.670;2023-11-21T12:09:07;11.82;;;6.90;;
46815;SDS011;32787;53.316;8.670;2023-11-21T12:11:40;15.23;;;7.10;;
46815;SDS011;32787;53.316;8.670;2023-11-21T12:14:09;13.18;;;7.47;;
46815;SDS011;32787;53.316;8.670;2023-11-21T12:16:35;13.30;;;7.30;;
46815;SDS011;32787;53.316;8.670;2023-11-21T12:19:00;14.52;;;7.50;;
46815;SDS011;32787;53.316;8.670;2023-11-21T12:21:26;14.20;;;7.00;;
46815;SDS011;32787;53.316;8.670;2023-11-21T12:23:53;13.18;;;6.68;;
46815;SDS011;32787;53.316;8.670;2023-11-21T12:26:19;11.48;;;6.70;;
46815;SDS011;32787;53.316;8.670;2023-11-21T12:28:51;12.20;;;6.70;;
46815;SDS011;32787;53.316;8.670;2023-11-21T12:31:20;13.48;;;6.95;;
46815;SDS011;32787;53.316;8.670;2023-11-21T12:33:49;14.20;;;6.47;;
46815;SDS011;32787;53.316;8.670;2023-11-21T12:36:16;11.32;;;6.18;;
46815;SDS011;32787;53.316;8.670;2023-11-21T12:38:42;11.65;;;6.03;;
46815;SDS011;32787;53.316;8.670;2023-11-21T12:41:09;9.88;;;5.88;;
46815;SDS011;32787;53.316;8.670;2023-11-21T12:43:35;9.98;;;6.40;;
46815;SDS011;32787;53.316;8.670;2023-11-21T12:46:07;11.85;;;6.05;;
46815;SDS011;32787;53.316;8.670;2023-11-21T12:48:38;11.30;;;6.28;;
46815;SDS011;32787;53.316;8.670;2023-11-21T12:51:07;12.02;;;5.82;;
46815;SDS011;32787;53.316;8.670;2023-11-21T12:53:34;13.25;;;6.38;;
46815;SDS011;32787;53.316;8.670;2023-11-21T12:56:07;10.43;;;6.20;;
46815;SDS011;32787;53.316;8.670;2023-11-21T12:58:35;13.40;;;6.75;;
46815;SDS011;32787;53.316;8.670;2023-11-21T13:01:02;10.90;;;5.70;;
46815;SDS011;32787;53.316;8.670;2023-11-21T13:03:29;11.57;;;5.32;;
46815;SDS011;32787;53.316;8.670;2023-11-21T13:05:55;10.60;;;5.50;;
46815;SDS011;32787;53.316;8.670;2023-11-21T13:08:22;11.07;;;5.13;;
46815;SDS011;32787;53.316;8.670;2023-11-21T13:10:50;8.45;;;4.40;;
46815;SDS011;32787;53.316;8.670;2023-11-21T13:15:47;10.88;;;5.45;;
46815;SDS011;32787;53.316;8.670;2023-11-21T13:18:13;9.18;;;4.70;;
46815;SDS011;32787;53.316;8.670;2023-11-21T13:20:40;9.73;;;5.13;;
46815;SDS011;32787;53.316;8.670;2023-11-21T13:23:08;11.05;;;5.07;;
46815;SDS011;32787;53.316;8.670;2023-11-21T13:25:37;15.30;;;7.65;;
46815;SDS011;32787;53.316;8.670;2023-11-21T13:28:04;9.35;;;5.43;;
46815;SDS011;32787;53.316;8.670;2023-11-21T13:30:30;10.13;;;5.43;;
46815;SDS011;32787;53.316;8.670;2023-11-21T13:32:59;10.57;;;5.60;;
46815;SDS011;32787;53.316;8.670;2023-11-21T13:35:36;8.68;;;5.00;;
46815;SDS011;32787;53.316;8.670;2023-11-21T13:38:10;10.15;;;5.47;;
46815;SDS011;32787;53.316;8.670;2023-11-21T13:40:41;9.40;;;5.18;;
46815;SDS011;32787;53.316;8.670;2023-11-21T13:43:15;7.03;;;4.03;;
46815;SDS011;32787;53.316;8.670;2023-11-21T13:45:44;7.75;;;3.88;;
46815;SDS011;32787;53.316;8.670;2023-11-21T13:48:11;10.38;;;4.55;;
46815;SDS011;32787;53.316;8.670;2023-11-21T13:50:44;10.02;;;4.38;;
46815;SDS011;32787;53.316;8.670;2023-11-21T13:53:24;9.10;;;4.60;;
46815;SDS011;32787;53.316;8.670;2023-11-21T13:55:50;9.70;;;4.63;;
46815;SDS011;32787;53.316;8.670;2023-11-21T13:58:19;12.10;;;5.57;;
46815;SDS011;32787;53.316;8.670;2023-11-21T14:00:48;11.80;;;5.85;;
46815;SDS011;32787;53.316;8.670;2023-11-21T14:03:22;11.20;;;7.28;;
46815;SDS011;32787;53.316;8.670;2023-11-21T14:05:57;11.73;;;7.18;;
46815;SDS011;32787;53.316;8.670;2023-11-21T14:08:25;10.27;;;5.88;;
46815;SDS011;32787;53.316;8.670;2023-11-21T14:10:57;13.95;;;8.35;;
46815;SDS011;32787;53.316;8.670;2023-11-21T14:13:24;12.20;;;6.47;;
46815;SDS011;32787;53.316;8.670;2023-11-21T14:15:51;13.10;;;6.15;;
46815;SDS011;32787;53.316;8.670;2023-11-21T14:18:23;11.02;;;6.15;;
46815;SDS011;32787;53.316;8.670;2023-11-21T14:20:59;12.13;;;6.13;;
46815;SDS011;32787;53.316;8.670;2023-11-21T14:23:25;11.43;;;5.72;;
46815;SDS011;32787;53.316;8.670;2023-11-21T14:25:50;9.82;;;5.47;;
46815;SDS011;32787;53.316;8.670;2023-11-21T14:28:17;11.68;;;5.75;;
46815;SDS011;32787;53.316;8.670;2023-11-21T14:30:44;11.85;;;5.97;;
46815;SDS011;32787;53.316;8.670;2023-11-21T14:33:11;12.23;;;5.65;;
46815;SDS011;32787;53.316;8.670;2023-11-21T14:35:37;11.05;;;5.90;;
46815;SDS011;32787;53.316;8.670;2023-11-21T14:38:02;10.93;;;5.63;;
46815;SDS011;32787;53.316;8.670;2023-11-21T14:40:32;9.20;;;5.35;;
46815;SDS011;32787;53.316;8.670;2023-11-21T14:43:00;10.52;;;5.43;;
46815;SDS011;32787;53.316;8.670;2023-11-21T14:45:32;8.77;;;4.60;;